Margaret — WDC3267 — position and weather

sailwx.info

Track history (hours):
 
Tides and Currents Weather Stations Pressure Air Temp Water Temp Dewpoint Dewpoint Depression Visibility Wind Speed Wind Dir Waves Ship Positions

Margaret

Owner: Cooper Marine & Timberlands Corporation, Mobile, AL. More information available from US FCC via Universal Licensing System and Coast Guard Vessel Documentation Center.

Last reported at 2015-Jul-02 12:30 UTC. Time now 2015-Jul-02 12:38 UTC.
Position N 29°57' W 090°02'.

; draft 9 m.

Type: Towing. MMSI: 367004940.

Date/timePositionNaut miles runAvg speedWind from/ knotsBaromVisibWave heightAir tempDewpointWater temp
2015-Jul-02 12:30N 29°57' W 090°02'0 0.0
2015-Jul-02 11:21N 29°57' W 090°02'0 0.0
2015-Jul-02 10:20N 29°57' W 090°02'0 0.0
2015-Jul-02 09:32N 29°57' W 090°02'0 0.0
2015-Jul-02 08:30N 29°57' W 090°02'0 0.0
2015-Jul-02 07:15N 29°57' W 090°02'0 0.0
2015-Jul-02 06:19N 29°57' W 090°02'0 0.0
2015-Jul-02 05:17N 29°57' W 090°02'0 0.0
2015-Jul-02 00:13N 29°57' W 090°02'0 0.0
2015-Jul-01 23:28N 29°57' W 090°02'4 3.7
2015-Jul-01 22:24N 29°55' W 090°06'2 1.8
2015-Jul-01 21:32N 29°54' W 090°07'0 0.2
2015-Jul-01 20:33N 29°54' W 090°07'0 0.0
2015-Jul-01 19:32N 29°54' W 090°07'0 0.0
2015-Jul-01 18:33N 29°54' W 090°07'0 0.0
2015-Jul-01 17:33N 29°54' W 090°07'0 0.0
2015-Jul-01 16:33N 29°54' W 090°07'0 0.0
2015-Jul-01 15:31N 29°54' W 090°07'1 1.2
2015-Jul-01 14:31N 29°55' W 090°06'2 2.1
2015-Jul-01 13:33N 29°55' W 090°04'0 0.0
2015-Jul-01 12:09N 29°55' W 090°04'3 1.8
2015-Jul-01 10:21N 29°54' W 090°07'5 3.0
2015-Jul-01 08:32N 29°56' W 090°13'4 0.2
2015-Jun-30 05:22N 29°56' W 090°08'4 4.6
2015-Jun-30 04:30N 29°55' W 090°04'0 0.0
2015-Jun-30 03:28N 29°55' W 090°04'0 0.0
2015-Jun-30 02:32N 29°55' W 090°04'0 0.0
2015-Jun-30 01:29N 29°55' W 090°04'1 0.9
2015-Jun-30 00:30N 29°56' W 090°03'2 2.1
2015-Jun-29 23:29N 29°57' W 090°01'0 0.0
2015-Jun-29 22:33N 29°57' W 090°01'2 2.1
2015-Jun-29 21:28N 29°57' W 090°03'4 4.5
2015-Jun-29 20:33N 29°55' W 090°07'  
2015-Jun-26 14:13N 29°57' W 090°08'0 0.1
2015-Jun-26 11:29N 29°56' W 090°08'0 0.0
2015-Jun-26 10:13N 29°56' W 090°08'1 2.0
2015-Jun-26 09:32N 29°55' W 090°08'2 1.2
2015-Jun-26 08:13N 29°57' W 090°08'4 1.3
2015-Jun-26 05:20N 29°55' W 090°12'6 6.4
2015-Jun-26 04:29N 29°57' W 090°18'3 0.1
2015-Jun-24 09:33N 29°56' W 090°22'0 0.1
2015-Jun-24 06:18N 29°57' W 090°22'2 1.6
2015-Jun-24 05:17N 29°56' W 090°21'0 0.0
2015-Jun-24 04:24N 29°56' W 090°21'0 0.0
2015-Jun-24 03:31N 29°56' W 090°21'1 0.9
2015-Jun-24 02:30N 29°56' W 090°22'  
Track history (hours):
 
Tides and Currents Weather Stations Pressure Air Temp Water Temp Dewpoint Dewpoint Depression Visibility Wind Speed Wind Dir Waves Ship Positions

Margaret

Owner: Cooper Marine & Timberlands Corporation, Mobile, AL. More information available from US FCC via Universal Licensing System and Coast Guard Vessel Documentation Center.

Last reported at 2015-Jul-02 12:30 UTC. Time now 2015-Jul-02 12:38 UTC.
Position N 29°57' W 090°02'.

; draft 9 m.

Type: Towing. MMSI: 367004940.

Date/timePositionNaut miles runAvg speedWind from/ knotsBaromVisibWave heightAir tempDewpointWater temp
2015-Jul-02 12:30N 29°57' W 090°02'0 0.0
2015-Jul-02 11:21N 29°57' W 090°02'0 0.0
2015-Jul-02 10:20N 29°57' W 090°02'0 0.0
2015-Jul-02 09:32N 29°57' W 090°02'0 0.0
2015-Jul-02 08:30N 29°57' W 090°02'0 0.0
2015-Jul-02 07:15N 29°57' W 090°02'0 0.0
2015-Jul-02 06:19N 29°57' W 090°02'0 0.0
2015-Jul-02 05:17N 29°57' W 090°02'0 0.0
2015-Jul-02 00:13N 29°57' W 090°02'0 0.0
2015-Jul-01 23:28N 29°57' W 090°02'4 3.7
2015-Jul-01 22:24N 29°55' W 090°06'2 1.8
2015-Jul-01 21:32N 29°54' W 090°07'0 0.2
2015-Jul-01 20:33N 29°54' W 090°07'0 0.0
2015-Jul-01 19:32N 29°54' W 090°07'0 0.0
2015-Jul-01 18:33N 29°54' W 090°07'0 0.0
2015-Jul-01 17:33N 29°54' W 090°07'0 0.0
2015-Jul-01 16:33N 29°54' W 090°07'0 0.0
2015-Jul-01 15:31N 29°54' W 090°07'1 1.2
2015-Jul-01 14:31N 29°55' W 090°06'2 2.1
2015-Jul-01 13:33N 29°55' W 090°04'0 0.0
2015-Jul-01 12:09N 29°55' W 090°04'3 1.8
2015-Jul-01 10:21N 29°54' W 090°07'5 3.0
2015-Jul-01 08:32N 29°56' W 090°13'4 0.2
2015-Jun-30 05:22N 29°56' W 090°08'4 4.6
2015-Jun-30 04:30N 29°55' W 090°04'0 0.0
2015-Jun-30 03:28N 29°55' W 090°04'0 0.0
2015-Jun-30 02:32N 29°55' W 090°04'0 0.0
2015-Jun-30 01:29N 29°55' W 090°04'1 0.9
2015-Jun-30 00:30N 29°56' W 090°03'2 2.1
2015-Jun-29 23:29N 29°57' W 090°01'0 0.0
2015-Jun-29 22:33N 29°57' W 090°01'2 2.1
2015-Jun-29 21:28N 29°57' W 090°03'4 4.5
2015-Jun-29 20:33N 29°55' W 090°07'  
2015-Jun-26 14:13N 29°57' W 090°08'0 0.1
2015-Jun-26 11:29N 29°56' W 090°08'0 0.0
2015-Jun-26 10:13N 29°56' W 090°08'1 2.0
2015-Jun-26 09:32N 29°55' W 090°08'2 1.2
2015-Jun-26 08:13N 29°57' W 090°08'4 1.3
2015-Jun-26 05:20N 29°55' W 090°12'6 6.4
2015-Jun-26 04:29N 29°57' W 090°18'3 0.1
2015-Jun-24 09:33N 29°56' W 090°22'0 0.1
2015-Jun-24 06:18N 29°57' W 090°22'2 1.6
2015-Jun-24 05:17N 29°56' W 090°21'0 0.0
2015-Jun-24 04:24N 29°56' W 090°21'0 0.0
2015-Jun-24 03:31N 29°56' W 090°21'1 0.9
2015-Jun-24 02:30N 29°56' W 090°22'  

Dump ship's entire track history